Maylene, Alabama
Current Conditions -  °F | °C
As of 1:05 PM on Sunday 23 Nov 2014 (Local Time) from KEET Reporting Station
Moderate Rain Moderate Rain  
Wind Chill: 63°   Ceiling: 500
Heat Index: 63°   Visibility: 2.5mi
Dew Point: 62°   Wind: 6mph
Humidity: 97%   Direction: 120°ESE
Pressure: 29.56"   Gusts: NA
Location:  33.2°N, 86.86°W
Report Text: KEET 231905Z AUTO 12005KT 2 1/2SM RA BR OVC005 17/17 A2956 RMK AO2 VIS 1 3/4V4 CIG 004V010 PRESFR P0004 T01720167
Loading
Personal Weather Stations






























Interactive Weather Map New forecast layout! Learn more

10-Day Weather Forecast

Advertisements
Track Severe Weather on mobile